createdAt,value
2022-09-05T00:02:26.180Z,30.15
2022-09-05T00:05:19.846Z,28.40
2022-09-05T00:08:19.948Z,28.63
2022-09-05T00:11:42.066Z,26.63
2022-09-05T00:15:15.247Z,30.35
2022-09-05T00:18:47.041Z,29.10
2022-09-05T00:24:22.715Z,28.20
2022-09-05T00:24:43.550Z,31.00
2022-09-05T00:27:45.742Z,29.58
2022-09-05T00:31:50.908Z,32.10
2022-09-05T00:33:38.768Z,29.05
2022-09-05T00:36:44.168Z,27.75
2022-09-05T00:39:28.123Z,31.10
2022-09-05T00:42:09.951Z,29.80
2022-09-05T00:45:01.104Z,30.30
2022-09-05T00:48:01.213Z,32.53
2022-09-05T00:50:56.124Z,32.75
2022-09-05T00:53:52.281Z,31.65
2022-09-05T00:57:01.350Z,31.23
2022-09-05T01:00:02.785Z,32.90
2022-09-05T01:03:11.995Z,34.58
2022-09-05T01:06:17.611Z,33.83
2022-09-05T01:09:26.772Z,31.15
2022-09-05T01:12:24.773Z,32.65
2022-09-05T01:15:22.447Z,33.47
2022-09-05T01:18:29.202Z,35.78
2022-09-05T01:21:38.339Z,33.70
2022-09-05T01:24:45.138Z,32.25
2022-09-05T01:28:44.625Z,32.00
2022-09-05T01:31:03.712Z,34.50
2022-09-05T01:33:56.074Z,39.05
2022-09-05T01:37:05.237Z,34.58
2022-09-05T01:40:14.715Z,33.20
2022-09-05T01:43:17.781Z,33.30
2022-09-05T01:46:30.338Z,30.77
2022-09-05T01:49:18.485Z,31.35
2022-09-05T01:52:28.217Z,34.15
2022-09-05T01:58:29.809Z,32.65
2022-09-05T02:01:25.357Z,31.70
2022-09-05T02:04:32.910Z,31.75
2022-09-05T02:07:30.881Z,30.65
2022-09-05T02:10:30.149Z,31.52
2022-09-05T02:13:30.802Z,30.42
2022-09-05T02:16:24.451Z,28.55
2022-09-05T02:19:11.497Z,29.27
2022-09-05T02:21:56.192Z,30.67
2022-09-05T02:24:40.068Z,28.80
2022-09-05T02:27:43.596Z,28.05
2022-09-05T02:30:25.247Z,29.75
2022-09-05T02:33:12.831Z,28.98
2022-09-05T02:36:14.375Z,27.27
2022-09-05T02:40:06.193Z,25.92
2022-09-05T02:45:08.932Z,26.63
2022-09-05T02:45:25.803Z,27.48
2022-09-05T02:48:16.239Z,25.98
2022-09-05T02:57:29.659Z,26.25
2022-09-05T02:57:34.407Z,26.70
2022-09-05T02:58:08.092Z,25.92
2022-09-05T03:00:44.247Z,25.02
2022-09-05T03:03:40.037Z,26.70
2022-09-05T03:06:46.067Z,25.30
2022-09-05T03:09:46.376Z,26.38
2022-09-05T03:12:47.093Z,26.27
2022-09-05T03:15:49.967Z,25.42
2022-09-05T03:19:01.994Z,28.48
2022-09-05T03:22:24.260Z,27.13
2022-09-05T03:25:29.315Z,28.58
2022-09-05T03:28:38.206Z,26.70
2022-09-05T03:31:39.794Z,27.90
2022-09-05T03:34:41.325Z,25.55
2022-09-05T03:37:49.847Z,26.05
2022-09-05T03:40:57.727Z,26.25
2022-09-05T03:44:00.720Z,27.35
2022-09-05T03:46:55.650Z,20.95
2022-09-05T03:51:58.913Z,25.08
2022-09-05T03:57:14.835Z,25.10
2022-09-05T03:57:16.678Z,23.00
2022-09-05T03:59:51.256Z,22.42
2022-09-05T04:05:57.251Z,20.35
2022-09-05T04:08:17.422Z,21.35
2022-09-05T04:08:43.194Z,22.98
2022-09-05T04:11:30.677Z,22.20
2022-09-05T04:14:10.791Z,27.25
2022-09-05T04:16:58.518Z,23.25
2022-09-05T04:19:49.995Z,26.88
2022-09-05T04:22:54.658Z,23.50
2022-09-05T04:26:01.422Z,26.63
2022-09-05T04:29:25.767Z,24.58
2022-09-05T04:32:18.578Z,22.42
2022-09-05T04:35:06.287Z,22.00
2022-09-05T04:37:57.318Z,24.20
2022-09-05T04:40:44.012Z,20.25
2022-09-05T04:43:30.531Z,18.98
2022-09-05T04:46:30.144Z,17.52
2022-09-05T04:49:16.376Z,17.60
2022-09-05T04:52:11.245Z,19.17
2022-09-05T04:55:03.829Z,18.38
2022-09-05T04:57:51.574Z,18.58
2022-09-05T05:05:58.741Z,19.35
2022-09-05T05:06:08.726Z,17.48
2022-09-05T05:06:46.375Z,16.95
2022-09-05T05:09:30.127Z,16.25
2022-09-05T05:17:53.759Z,14.70
2022-09-05T05:18:12.508Z,15.10
2022-09-05T05:18:41.224Z,15.55
2022-09-05T05:21:22.385Z,15.75
2022-09-05T05:24:13.897Z,71.35
2022-09-05T05:26:57.089Z,24.20
2022-09-05T05:29:41.423Z,16.77
2022-09-05T05:32:31.596Z,12.10
2022-09-05T05:35:14.930Z,11.63
2022-09-05T05:37:52.953Z,12.38
2022-09-05T05:40:29.087Z,10.57
2022-09-05T05:43:18.591Z,11.75
2022-09-05T05:45:49.235Z,12.73
2022-09-05T05:48:35.352Z,10.73
2022-09-05T05:52:01.168Z,10.80
2022-09-05T05:55:34.008Z,11.15
2022-09-05T05:58:00.943Z,11.55
2022-09-05T06:01:21.972Z,10.60
2022-09-05T06:07:28.148Z,11.60
2022-09-05T06:14:51.067Z,9.88
2022-09-05T06:15:05.030Z,10.00
2022-09-05T06:17:11.348Z,10.23
2022-09-05T06:21:56.690Z,11.20
2022-09-05T06:23:40.062Z,11.10
2022-09-05T06:26:36.617Z,11.63
2022-09-05T06:29:18.944Z,16.98
2022-09-05T06:32:18.334Z,19.52
2022-09-05T06:35:13.348Z,19.38
2022-09-05T06:38:10.172Z,18.77
2022-09-05T06:41:18.468Z,19.88
2022-09-05T06:44:19.389Z,22.40
2022-09-05T06:47:22.548Z,20.27
2022-09-05T06:50:26.847Z,20.33
2022-09-05T06:53:29.145Z,22.17
2022-09-05T06:56:25.850Z,19.73
2022-09-05T06:59:32.305Z,18.48
2022-09-05T07:02:14.484Z,19.90
2022-09-05T07:05:37.236Z,18.25
2022-09-05T07:08:09.354Z,16.38
2022-09-05T07:11:16.302Z,16.92
2022-09-05T07:14:26.328Z,16.27
2022-09-05T07:17:08.040Z,16.27
2022-09-05T07:19:59.584Z,16.02
2022-09-05T07:22:47.344Z,14.85
2022-09-05T07:25:26.425Z,17.00
2022-09-05T07:28:26.669Z,17.50
2022-09-05T07:31:09.502Z,17.10
2022-09-05T07:33:43.377Z,17.38
2022-09-05T07:36:22.100Z,16.65
2022-09-05T07:39:25.257Z,19.73
2022-09-05T07:41:55.566Z,19.42
2022-09-05T07:44:33.492Z,21.30
2022-09-05T07:47:18.866Z,20.83
2022-09-05T07:50:42.855Z,19.83
2022-09-05T07:56:47.440Z,18.10
2022-09-05T07:56:51.657Z,19.10
2022-09-05T07:58:43.922Z,18.23
2022-09-05T08:01:16.623Z,19.75
2022-09-05T08:03:47.234Z,20.10
2022-09-05T08:06:27.472Z,19.40
2022-09-05T08:10:05.844Z,19.40
2022-09-05T08:12:30.131Z,19.08
2022-09-05T08:15:25.098Z,16.90
2022-09-05T08:18:09.806Z,14.60
2022-09-05T08:21:00.006Z,13.40
2022-09-05T08:23:49.639Z,11.45
2022-09-05T08:26:44.052Z,12.15
2022-09-05T08:29:43.336Z,10.45
2022-09-05T08:32:35.473Z,10.13
2022-09-05T08:35:22.070Z,11.07
2022-09-05T08:37:53.639Z,9.65
2022-09-05T08:40:44.979Z,10.68
2022-09-05T08:46:36.944Z,9.98
2022-09-05T08:46:50.213Z,9.95
2022-09-05T08:52:47.746Z,10.70
2022-09-05T08:55:47.554Z,10.77
2022-09-05T08:58:34.517Z,11.02
2022-09-05T09:02:14.673Z,8.25
2022-09-05T09:05:14.198Z,11.73
2022-09-05T09:08:02.493Z,10.07
2022-09-05T09:11:07.583Z,9.27
2022-09-05T09:14:29.483Z,10.20
2022-09-05T09:17:26.094Z,9.52
2022-09-05T09:20:14.962Z,8.40
2022-09-05T09:23:06.076Z,10.85
2022-09-05T09:25:48.614Z,11.00
2022-09-05T09:28:50.078Z,10.25
2022-09-05T09:31:39.266Z,12.50
2022-09-05T09:34:26.129Z,11.15
2022-09-05T09:37:19.865Z,11.88
2022-09-05T09:40:34.882Z,9.90
2022-09-05T09:43:19.818Z,11.50
2022-09-05T09:46:20.669Z,10.93
2022-09-05T09:49:22.566Z,13.48
2022-09-05T09:52:32.142Z,14.65
2022-09-05T09:55:43.066Z,15.57
2022-09-05T09:58:42.574Z,12.85
2022-09-05T10:01:37.178Z,12.82
2022-09-05T10:10:39.121Z,13.27
2022-09-05T10:10:49.592Z,11.40
2022-09-05T10:14:49.450Z,11.05
2022-09-05T10:17:54.746Z,12.68
2022-09-05T10:21:15.698Z,13.25
2022-09-05T10:24:24.049Z,13.40
2022-09-05T10:27:25.115Z,12.85
2022-09-05T10:30:13.865Z,12.57
2022-09-05T10:35:07.807Z,11.73
2022-09-05T10:36:26.857Z,12.30
2022-09-05T10:39:23.550Z,11.95
2022-09-05T10:42:04.458Z,10.65
2022-09-05T10:44:50.270Z,12.63
2022-09-05T10:47:58.010Z,13.68
2022-09-05T10:50:47.861Z,11.75
2022-09-05T10:53:39.036Z,13.85
2022-09-05T10:56:23.990Z,13.88
2022-09-05T11:00:58.034Z,13.85
2022-09-05T11:02:27.234Z,14.75
2022-09-05T11:05:28.823Z,15.60
2022-09-05T11:08:08.939Z,14.07
2022-09-05T11:10:56.583Z,14.55
2022-09-05T11:13:48.163Z,13.80
2022-09-05T11:16:41.107Z,16.38
2022-09-05T11:19:25.047Z,17.52
2022-09-05T11:22:22.105Z,15.23
2022-09-05T11:25:00.058Z,14.00
2022-09-05T11:27:39.347Z,13.25
2022-09-05T11:30:29.864Z,14.20
2022-09-05T11:39:47.981Z,13.88
2022-09-05T11:39:57.507Z,13.38
2022-09-05T11:40:31.497Z,15.23
2022-09-05T11:43:32.492Z,16.45
2022-09-05T11:46:33.613Z,14.45
2022-09-05T11:49:34.523Z,15.38
2022-09-05T11:52:43.040Z,16.75
2022-09-05T11:55:44.727Z,14.57
2022-09-05T11:58:44.908Z,18.15
2022-09-05T12:01:41.679Z,16.08
2022-09-05T12:04:45.776Z,17.27
2022-09-05T12:07:50.062Z,15.15
2022-09-05T12:10:46.240Z,16.25
2022-09-05T12:13:42.624Z,14.75
2022-09-05T12:16:40.787Z,15.73
2022-09-05T12:19:39.570Z,17.75
2022-09-05T12:22:35.665Z,15.38
2022-09-05T12:27:36.663Z,33.40
2022-09-05T12:29:27.902Z,38.60
2022-09-05T12:32:36.413Z,26.92
2022-09-05T12:36:07.866Z,21.02
2022-09-05T12:40:25.476Z,19.85
2022-09-05T12:41:36.612Z,18.83
2022-09-05T12:44:36.381Z,20.88
2022-09-05T12:46:10.951Z,22.30
2022-09-05T12:49:06.988Z,21.40
2022-09-05T12:51:47.716Z,29.70
2022-09-05T12:54:35.885Z,23.52
2022-09-05T13:02:56.639Z,20.88
2022-09-05T13:03:09.051Z,22.02
2022-09-05T13:03:35.684Z,23.42
2022-09-05T13:06:24.759Z,21.77
2022-09-05T13:09:13.016Z,20.83
2022-09-05T13:14:56.693Z,23.38
2022-09-05T13:15:23.318Z,25.45
2022-09-05T13:18:05.918Z,25.13
2022-09-05T13:20:41.358Z,25.00
2022-09-05T13:23:32.734Z,25.60
2022-09-05T13:26:28.474Z,25.63
2022-09-05T13:29:11.023Z,28.30
2022-09-05T13:37:58.528Z,25.73
2022-09-05T13:38:17.892Z,24.02
2022-09-05T13:38:28.870Z,25.30
2022-09-05T13:40:52.778Z,26.42
2022-09-05T13:43:40.300Z,23.02
2022-09-05T13:46:26.807Z,21.75
2022-09-05T13:49:27.699Z,26.15
2022-09-05T13:52:28.012Z,25.98
2022-09-05T13:55:35.589Z,26.38
2022-09-05T13:58:14.191Z,25.73
2022-09-05T14:01:20.068Z,25.55
2022-09-05T14:07:46.272Z,25.08
2022-09-05T14:10:39.546Z,25.52
2022-09-05T14:13:27.224Z,25.25
2022-09-05T14:16:14.225Z,25.23
2022-09-05T14:18:59.979Z,28.83
2022-09-05T14:21:33.928Z,27.52
2022-09-05T14:24:22.017Z,25.45
2022-09-05T14:27:31.849Z,24.35
2022-09-05T14:30:44.275Z,25.30
2022-09-05T14:37:36.685Z,25.33
2022-09-05T14:37:45.591Z,28.17
2022-09-05T14:40:06.645Z,32.25
2022-09-05T14:43:26.823Z,32.60
2022-09-05T14:46:33.667Z,32.97
2022-09-05T14:49:34.048Z,31.73
2022-09-05T14:52:35.553Z,30.50
2022-09-05T14:55:20.440Z,29.48
2022-09-05T15:02:54.234Z,30.17
2022-09-05T15:02:57.751Z,30.77
2022-09-05T15:06:44.317Z,25.05
2022-09-05T15:12:14.375Z,25.23
2022-09-05T15:12:38.581Z,23.30
2022-09-05T15:15:21.186Z,22.50
2022-09-05T15:17:55.297Z,21.48
2022-09-05T15:20:38.760Z,19.90
2022-09-05T15:23:17.834Z,20.33
2022-09-05T15:26:25.790Z,20.45
2022-09-05T15:29:13.613Z,20.70
2022-09-05T15:31:45.092Z,23.17
2022-09-05T15:34:28.656Z,23.40
2022-09-05T15:37:09.271Z,24.65
2022-09-05T15:39:50.112Z,24.45
2022-09-05T15:42:26.158Z,24.90
2022-09-05T15:45:11.064Z,26.23
2022-09-05T15:47:47.516Z,25.60
2022-09-05T15:50:23.027Z,23.00
2022-09-05T15:52:56.217Z,22.65
2022-09-05T15:55:28.865Z,23.10
2022-09-05T15:58:04.423Z,24.30
2022-09-05T16:00:46.158Z,23.50
2022-09-05T16:05:16.371Z,22.88
2022-09-05T16:10:36.900Z,22.23
2022-09-05T16:10:43.466Z,22.00
2022-09-05T16:12:47.425Z,20.75
2022-09-05T16:17:36.375Z,21.17
2022-09-05T16:23:17.780Z,22.42
2022-09-05T16:23:26.371Z,21.45
2022-09-05T16:24:34.886Z,23.80
2022-09-05T16:27:16.556Z,24.60
2022-09-05T16:29:50.573Z,24.35
2022-09-05T16:32:28.007Z,23.90
2022-09-05T16:35:02.066Z,21.70
2022-09-05T16:37:42.855Z,22.67
2022-09-05T16:40:25.579Z,21.27
2022-09-05T16:43:20.227Z,20.23
2022-09-05T16:46:18.029Z,19.58
2022-09-05T16:49:16.628Z,20.52
2022-09-05T16:51:50.571Z,19.40
2022-09-05T16:54:48.540Z,20.42
2022-09-05T16:57:32.880Z,19.13
2022-09-05T17:00:04.373Z,21.30
2022-09-05T17:03:03.366Z,21.02
2022-09-05T17:05:49.125Z,22.88
2022-09-05T17:08:31.851Z,21.85
2022-09-05T17:11:13.864Z,23.98
2022-09-05T17:14:00.649Z,25.48
2022-09-05T17:16:44.707Z,27.50
2022-09-05T17:19:40.384Z,22.52
2022-09-05T17:27:53.887Z,21.15
2022-09-05T17:29:26.138Z,23.65
2022-09-05T17:29:28.936Z,23.77
2022-09-05T17:31:56.144Z,25.80
2022-09-05T17:34:49.292Z,25.98
2022-09-05T17:38:08.007Z,25.30
2022-09-05T17:41:13.441Z,27.13
2022-09-05T17:43:44.699Z,25.33
2022-09-05T17:46:28.409Z,28.23
2022-09-05T17:49:17.605Z,27.17
2022-09-05T17:52:20.165Z,25.60
2022-09-05T17:54:54.581Z,26.20
2022-09-05T17:57:37.534Z,25.98
2022-09-05T18:00:47.616Z,26.52
2022-09-05T18:04:16.436Z,26.17
2022-09-05T18:10:05.967Z,26.35
2022-09-05T18:13:12.957Z,26.83
2022-09-05T18:16:14.683Z,25.25
2022-09-05T18:19:28.028Z,25.92
2022-09-05T18:22:08.525Z,27.05
2022-09-05T18:25:13.883Z,27.98
2022-09-05T18:28:09.205Z,26.98
2022-09-05T18:30:40.236Z,27.55
2022-09-05T18:33:53.910Z,26.23
2022-09-05T18:36:35.468Z,25.95
2022-09-05T18:39:40.043Z,26.65
2022-09-05T18:42:25.867Z,26.25
2022-09-05T18:45:16.152Z,27.00
2022-09-05T18:47:57.311Z,25.98
2022-09-05T18:50:36.371Z,25.85
2022-09-05T18:53:13.080Z,25.52
2022-09-05T18:56:10.699Z,26.45
2022-09-05T18:59:10.271Z,24.88
2022-09-05T19:02:06.065Z,24.15
2022-09-05T19:04:53.452Z,22.92
2022-09-05T19:07:34.394Z,22.58
2022-09-05T19:10:36.012Z,20.17
2022-09-05T19:13:23.688Z,20.55
2022-09-05T19:16:34.976Z,18.73
2022-09-05T19:19:17.715Z,18.67
2022-09-05T19:23:08.031Z,19.75
2022-09-05T19:24:55.081Z,19.83
2022-09-05T19:47:36.824Z,20.55
2022-09-05T19:47:38.545Z,18.73
2022-09-05T19:48:29.312Z,20.15
2022-09-05T19:51:21.442Z,20.38
2022-09-05T19:54:04.630Z,16.88
2022-09-05T19:56:49.319Z,19.77
2022-09-05T19:59:25.188Z,18.02
2022-09-05T20:01:56.528Z,19.70
2022-09-05T20:04:29.001Z,22.17
2022-09-05T20:06:59.420Z,19.15
2022-09-05T20:09:30.155Z,20.80
2022-09-05T20:12:01.928Z,17.83
2022-09-05T20:14:37.863Z,20.48
2022-09-05T20:17:25.227Z,17.88
2022-09-05T20:20:15.135Z,18.77
2022-09-05T20:25:42.983Z,24.58
2022-09-05T20:28:18.102Z,43.30
2022-09-05T20:30:53.195Z,41.85
2022-09-05T20:33:42.219Z,39.33
2022-09-05T20:40:32.393Z,33.93
2022-09-05T20:43:22.463Z,25.63
2022-09-05T20:43:35.265Z,27.33
2022-09-05T20:45:06.047Z,19.33
2022-09-05T20:53:17.382Z,20.63
2022-09-05T20:54:13.743Z,32.33
2022-09-05T20:54:15.239Z,33.22
2022-09-05T20:56:35.295Z,30.15
2022-09-05T20:59:05.709Z,23.48
2022-09-05T21:01:39.962Z,19.48
2022-09-05T21:04:10.701Z,18.67
2022-09-05T21:06:43.424Z,31.77
2022-09-05T21:09:31.346Z,18.80
2022-09-05T21:12:13.546Z,17.33
2022-09-05T21:15:25.574Z,17.13
2022-09-05T21:18:03.957Z,17.17
2022-09-05T21:20:34.680Z,18.27
2022-09-05T21:23:24.341Z,18.23
2022-09-05T21:25:57.832Z,17.40
2022-09-05T21:28:36.765Z,19.13
2022-09-05T21:31:16.169Z,18.25
2022-09-05T21:33:47.759Z,16.48
2022-09-05T21:36:18.890Z,18.85
2022-09-05T21:38:49.180Z,19.05
2022-09-05T21:41:20.045Z,19.23
2022-09-05T21:47:47.404Z,14.68
2022-09-05T21:47:48.294Z,15.73
2022-09-05T21:49:35.573Z,16.98
2022-09-05T21:52:10.209Z,19.15
2022-09-05T21:59:18.986Z,20.75
2022-09-05T21:59:21.321Z,21.23
2022-09-05T22:00:27.432Z,18.27
2022-09-05T22:02:57.997Z,19.55
2022-09-05T22:05:29.584Z,16.65
2022-09-05T22:08:02.512Z,18.52
2022-09-05T22:10:45.358Z,21.50
2022-09-05T22:13:22.940Z,20.90
2022-09-05T22:15:53.948Z,19.60
2022-09-05T22:18:24.319Z,20.23
2022-09-05T22:21:33.894Z,21.35
2022-09-05T22:23:49.027Z,21.92
2022-09-05T22:26:21.199Z,22.60
2022-09-05T22:28:52.033Z,20.75
2022-09-05T22:31:23.737Z,23.88
2022-09-05T22:33:54.168Z,23.67
2022-09-05T22:36:24.741Z,23.20
2022-09-05T22:38:56.731Z,23.17
2022-09-05T22:41:30.267Z,20.83
2022-09-05T22:44:01.559Z,21.83
2022-09-05T22:46:32.689Z,19.58
2022-09-05T22:49:03.177Z,22.60
2022-09-05T22:51:33.422Z,22.02
2022-09-05T22:54:06.428Z,20.15
2022-09-05T22:56:40.083Z,20.60
2022-09-05T22:59:13.059Z,20.67
2022-09-05T23:01:43.627Z,20.20
2022-09-05T23:04:14.038Z,21.42
2022-09-05T23:06:44.449Z,17.70
2022-09-05T23:09:14.804Z,18.45
2022-09-05T23:11:45.217Z,19.75
2022-09-05T23:14:15.536Z,19.77
2022-09-05T23:16:45.851Z,18.67
2022-09-05T23:19:16.247Z,18.98
2022-09-05T23:21:46.497Z,16.80
2022-09-05T23:24:16.919Z,17.80
2022-09-05T23:26:47.173Z,18.52
2022-09-05T23:29:17.637Z,19.13
2022-09-05T23:31:48.441Z,17.38
2022-09-05T23:34:19.203Z,18.40
2022-09-05T23:36:49.574Z,18.17
2022-09-05T23:39:19.866Z,18.85
2022-09-05T23:41:50.123Z,19.90
2022-09-05T23:44:20.608Z,17.98
2022-09-05T23:46:50.993Z,19.25
2022-09-05T23:49:22.261Z,19.85
2022-09-05T23:51:52.659Z,20.90
2022-09-05T23:54:23.092Z,18.45
2022-09-05T23:56:53.616Z,16.73
2022-09-05T23:59:24.286Z,18.27
